WetterOnline ( https://www.wetteronline.de )

Wetter aktuell Regen

Aktuelles Wetter: Zwiesel (613m)

6-stündlich | Neueste Meldungen
Ortszeit Temperatur Wetter
Sa, 18.05. 2:00 10.2° C Sprühregen
Fr, 17.05. 20:00 11.2° C bewölkt
Fr, 17.05. 14:00 11.3° C bewölkt
Fr, 17.05. 8:00 11.1° C leichter Regen
Fr, 17.05. 2:00 14.3° C wolkig
Do, 16.05. 20:00 16.8° C bedeckt
Do, 16.05. 14:00 20.1° C wolkenlos
Do, 16.05. 8:00 15.8° C bewölkt
Ortszeit Temperatur Wetter
Sa, 18.05. 5:30 9.7° C leichter Regen
Sa, 18.05. 5:20 9.7° C leichter Regen
Sa, 18.05. 5:10 9.7° C leichter Regen
Sa, 18.05. 5:00 9.8° C leichter Regen
Sa, 18.05. 4:50 9.8° C leichter Regen
Sa, 18.05. 4:40 9.8° C leichter Regen
Sa, 18.05. 4:30 9.7° C Sprühregen
Sa, 18.05. 4:00 9.9° C Regen
Sa, 18.05. 3:30 9.8° C leichter Regen
Sa, 18.05. 3:00 10.0° C leichter Regen
Sa, 18.05. 2:30 10.3° C bewölkt
Ortszeit Relative Feuchte Sichtweite
Sa, 18.05. 2:00 94% 35 km
Fr, 17.05. 20:00 82% 65 km
Fr, 17.05. 14:00 83% 65 km
Fr, 17.05. 8:00 93% 9 km
Fr, 17.05. 2:00 67% 50 km
Do, 16.05. 20:00 63% 50 km
Do, 16.05. 14:00 49% >70 km
Do, 16.05. 8:00 61% >70 km
Ortszeit Relative Feuchte Sichtweite
Sa, 18.05. 5:30 96% 4.5 km
Sa, 18.05. 5:20 96% -
Sa, 18.05. 5:10 96% -
Sa, 18.05. 5:00 97% 25 km
Sa, 18.05. 4:50 97% -
Sa, 18.05. 4:40 94% -
Sa, 18.05. 4:30 97% 35 km
Sa, 18.05. 4:00 96% 8 km
Sa, 18.05. 3:30 97% 23 km
Sa, 18.05. 3:00 93% 50 km
Sa, 18.05. 2:30 94% 55 km
Ortszeit Niederschlagsmenge Niederschlagsart
Sa, 18.05. 2:00 6 l/m2 in 6 Std. Regen
Fr, 17.05. 20:00 6 l/m2 in 12 Std. Regen
Fr, 17.05. 14:00 5 l/m2 in 6 Std. Regen
Fr, 17.05. 8:00 5 l/m2 in 12 Std. Regen
Fr, 17.05. 2:00 0.0 l/m2 in 6 Std. -
Do, 16.05. 20:00 0.0 l/m2 in 12 Std. -
Do, 16.05. 14:00 0.0 l/m2 in 6 Std. -
Do, 16.05. 8:00 0.1 l/m2 in 12 Std. Regen
Ortszeit Niederschlagsmenge Niederschlagsart
Sa, 18.05. 5:30 1.1 l/m2 in 30 Min -
Sa, 18.05. 5:20 keine Meldung -
Sa, 18.05. 5:10 keine Meldung -
Sa, 18.05. 5:00 1.3 l/m2 in 1 Std. Regen
Sa, 18.05. 4:50 keine Meldung -
Sa, 18.05. 4:40 keine Meldung -
Sa, 18.05. 4:30 1.2 l/m2 in 30 Min -
Sa, 18.05. 4:00 1.4 l/m2 in 1 Std. Regen
Sa, 18.05. 3:30 0.3 l/m2 in 30 Min -
Sa, 18.05. 3:00 <0.05 l/m2 in 1 Std. Regen
Sa, 18.05. 2:30 <0.05 l/m2 in 30 Min Schneeregen
Ortszeit Stärke Spitze Richtung
km/h Bft. km/h Grad Sektor
Sa, 18.05. 2:00 4 1 14 160° S
Fr, 17.05. 20:00 7 2 22 190° S
Fr, 17.05. 14:00 11 2 29 240° SW
Fr, 17.05. 8:00 7 2 25 50° NO
Fr, 17.05. 2:00 11 2 36 50° NO
Do, 16.05. 20:00 14 3 36 90° O
Do, 16.05. 14:00 13 3 30 120° SO
Do, 16.05. 8:00 2 1 22 300° NW
Ortszeit Stärke Spitze Richtung
km/h Bft. km/h Grad Sektor
Sa, 18.05. 5:30 4 1 11 180° S
Sa, 18.05. 5:20 4 1 - 180° S
Sa, 18.05. 5:10 6 1 - 200° S
Sa, 18.05. 5:00 4 1 14 250° W
Sa, 18.05. 4:50 4 1 - 250° W
Sa, 18.05. 4:40 6 1 - 190° S
Sa, 18.05. 4:30 6 1 13 140° SO
Sa, 18.05. 4:00 7 2 14 260° W
Sa, 18.05. 3:30 4 1 7 320° NW
Sa, 18.05. 3:00 4 1 14 150° SO
Sa, 18.05. 2:30 6 1 15 170° S
Ortszeit Untergrenze Bedeckung Gattung
total tief tief mittel hoch
Sa, 18.05. 2:00 390 m 7/8 7/8 - - -
Fr, 17.05. 20:00 750 m 7/8 7/8 - - -
Fr, 17.05. 14:00 420 m 7/8 7/8 - - -
Fr, 17.05. 8:00 300 m 7/8 7/8 - - -
Fr, 17.05. 2:00 2700 m 7/8 5/8 - - -
Do, 16.05. 20:00 3900 m 8/8 8/8 - - -
Do, 16.05. 14:00 - 0/8 0/8 - - -
Do, 16.05. 8:00 2700 m 8/8 4/8 - - -
Ortszeit Bedeckungsgrad in Achtel und Wolkenuntergrenze
Sa, 18.05. 5:30 1(60m) 7(420m) 7(840m)
Sa, 18.05. 5:20 1(60m) 7(420m) 7(840m)
Sa, 18.05. 5:10 7
Sa, 18.05. 5:00 2(450m) 3(1200m) 6(1410m)
Sa, 18.05. 4:50 2(450m) 3(1200m) 6(1410m)
Sa, 18.05. 4:40 4
Sa, 18.05. 4:30 1(120m) 3(1380m)
Sa, 18.05. 4:00 1(30m) 7(420m) 8(900m)
Sa, 18.05. 3:30 1(60m) 6(1020m) 7(1290m)
Sa, 18.05. 3:00 5(1380m) 7(1500m) 7(3600m)
Sa, 18.05. 2:30 1(330m) 7(1410m)
Ortszeit Luftdruck NN (hPa) Tendenz (hPa in 3 Std.)
Sa, 18.05. 2:00 1012 0,0
Fr, 17.05. 20:00 1011 + 0,7
Fr, 17.05. 14:00 1009 + 1,4
Fr, 17.05. 8:00 1005 + 1,0
Fr, 17.05. 2:00 1004 - 1,2
Do, 16.05. 20:00 1004 - 0,7
Do, 16.05. 14:00 1005 - 0,5
Do, 16.05. 8:00 1007 + 0,4
Ortszeit Luftdruck NN (hPa) Tendenz (hPa in 3 Std.)
Sa, 18.05. 5:30 1012 + 0,1
Sa, 18.05. 5:20 1012 keine Meldung
Sa, 18.05. 5:10 1012 keine Meldung
Sa, 18.05. 5:00 1012 - 0,2
Sa, 18.05. 4:50 1012 keine Meldung
Sa, 18.05. 4:40 1012 keine Meldung
Sa, 18.05. 4:30 1012 - 0,2
Sa, 18.05. 4:00 1012 0,0
Sa, 18.05. 3:30 1011 - 0,5
Sa, 18.05. 3:00 1012 - 0,5
Sa, 18.05. 2:30 1012 - 0,1
Ortszeit Schneehöhe (cm)
Sa, 18.05. 2:00 0
Fr, 17.05. 20:00 0
Fr, 17.05. 14:00 0
Fr, 17.05. 8:00 0
Fr, 17.05. 2:00 0
Do, 16.05. 20:00 0
Do, 16.05. 14:00 0
Do, 16.05. 8:00 0
Ortszeit Schneehöhe (cm)
Sa, 18.05. 5:30 0
Sa, 18.05. 5:20 0
Sa, 18.05. 5:10 -
Sa, 18.05. 5:00 0
Sa, 18.05. 4:50 0
Sa, 18.05. 4:40 -
Sa, 18.05. 4:30 0
Sa, 18.05. 4:00 0
Sa, 18.05. 3:30 0
Sa, 18.05. 3:00 0
Sa, 18.05. 2:30 0
Link zu dieser Seite / Seite empfehlen

Das Wetter in ...